Spirit Of Oceanus — C6PJ8 — position and weather

sailwx.info

Track history (hours):
 
Tides and Currents Weather Stations Pressure Air Temp Water Temp Dewpoint Dewpoint Depression Visibility Wind Speed Wind Dir Waves Ship Positions

Spirit Of Oceanus

Last reported at 2017-Feb-16 01:27 UTC. Time now 2017-Feb-24 21:40 UTC.
Position S 54°55' W 067°11'.
Warning: this ship's position is 8 days out of date.

Type: Passenger vessel. MMSI: 309224000.

Date/timePositionNaut miles runAvg speedWind from/ knotsBaromVisibWave heightAir tempDewpointWater temp
2017-Feb-16 01:27S 54°55' W 067°11'1011.8
2017-Feb-16 00:33S 54°55' W 067°30'1312.9
2017-Feb-15 23:33S 54°53' W 067°52'1312.8
2017-Feb-15 22:33S 54°50' W 068°13'3 2.9
2017-Feb-15 21:33S 54°49' W 068°18'0 0.0
2017-Feb-15 20:31S 54°49' W 068°18'0 0.0
2017-Feb-15 19:31S 54°49' W 068°18'0 0.0
2017-Feb-15 18:28S 54°49' W 068°18'0 0.0
2017-Feb-15 17:28S 54°49' W 068°18'0 0.0
2017-Feb-15 16:31S 54°49' W 068°18'0 0.0
2017-Feb-15 15:31S 54°49' W 068°18'0 0.0
2017-Feb-15 14:31S 54°49' W 068°18'0 0.0
2017-Feb-15 13:31S 54°49' W 068°18'0 0.0
2017-Feb-15 12:31S 54°49' W 068°18'0 0.0
2017-Feb-15 11:31S 54°49' W 068°18'0 0.0
2017-Feb-15 10:31S 54°49' W 068°18'0 0.0
2017-Feb-15 09:31S 54°49' W 068°18'0 0.0
2017-Feb-15 08:31S 54°49' W 068°18'0 0.0
2017-Feb-15 07:25S 54°49' W 068°18'0 0.0
2017-Feb-15 06:31S 54°49' W 068°18'0 0.0
2017-Feb-15 05:31S 54°49' W 068°18'0 0.0
2017-Feb-15 04:31S 54°49' W 068°18'0 0.0
2017-Feb-15 03:31S 54°49' W 068°18'0 0.0
2017-Feb-15 02:31S 54°49' W 068°18'0 0.0
2017-Feb-15 01:31S 54°49' W 068°18'0 0.0
2017-Feb-15 00:28S 54°49' W 068°18'0 0.0
2017-Feb-14 23:31S 54°49' W 068°18'0 0.0
2017-Feb-14 22:28S 54°49' W 068°18'2 2.0
2017-Feb-14 21:33S 54°49' W 068°15'9 9.3
2017-Feb-14 20:34S 54°52' W 067°60'9 8.7
2017-Feb-14 19:34S 54°54' W 067°45'10 9.7
2017-Feb-14 18:33S 54°55' W 067°28'  
Track history (hours):
 
Tides and Currents Weather Stations Pressure Air Temp Water Temp Dewpoint Dewpoint Depression Visibility Wind Speed Wind Dir Waves Ship Positions

Spirit Of Oceanus

Last reported at 2017-Feb-16 01:27 UTC. Time now 2017-Feb-24 21:40 UTC.
Position S 54°55' W 067°11'.
Warning: this ship's position is 8 days out of date.

Type: Passenger vessel. MMSI: 309224000.

Date/timePositionNaut miles runAvg speedWind from/ knotsBaromVisibWave heightAir tempDewpointWater temp
2017-Feb-16 01:27S 54°55' W 067°11'1011.8
2017-Feb-16 00:33S 54°55' W 067°30'1312.9
2017-Feb-15 23:33S 54°53' W 067°52'1312.8
2017-Feb-15 22:33S 54°50' W 068°13'3 2.9
2017-Feb-15 21:33S 54°49' W 068°18'0 0.0
2017-Feb-15 20:31S 54°49' W 068°18'0 0.0
2017-Feb-15 19:31S 54°49' W 068°18'0 0.0
2017-Feb-15 18:28S 54°49' W 068°18'0 0.0
2017-Feb-15 17:28S 54°49' W 068°18'0 0.0
2017-Feb-15 16:31S 54°49' W 068°18'0 0.0
2017-Feb-15 15:31S 54°49' W 068°18'0 0.0
2017-Feb-15 14:31S 54°49' W 068°18'0 0.0
2017-Feb-15 13:31S 54°49' W 068°18'0 0.0
2017-Feb-15 12:31S 54°49' W 068°18'0 0.0
2017-Feb-15 11:31S 54°49' W 068°18'0 0.0
2017-Feb-15 10:31S 54°49' W 068°18'0 0.0
2017-Feb-15 09:31S 54°49' W 068°18'0 0.0
2017-Feb-15 08:31S 54°49' W 068°18'0 0.0
2017-Feb-15 07:25S 54°49' W 068°18'0 0.0
2017-Feb-15 06:31S 54°49' W 068°18'0 0.0
2017-Feb-15 05:31S 54°49' W 068°18'0 0.0
2017-Feb-15 04:31S 54°49' W 068°18'0 0.0
2017-Feb-15 03:31S 54°49' W 068°18'0 0.0
2017-Feb-15 02:31S 54°49' W 068°18'0 0.0
2017-Feb-15 01:31S 54°49' W 068°18'0 0.0
2017-Feb-15 00:28S 54°49' W 068°18'0 0.0
2017-Feb-14 23:31S 54°49' W 068°18'0 0.0
2017-Feb-14 22:28S 54°49' W 068°18'2 2.0
2017-Feb-14 21:33S 54°49' W 068°15'9 9.3
2017-Feb-14 20:34S 54°52' W 067°60'9 8.7
2017-Feb-14 19:34S 54°54' W 067°45'10 9.7
2017-Feb-14 18:33S 54°55' W 067°28'  

Dump ship's entire track history